createdAt,value
2022-10-15T10:30:25.889Z,40.10
2022-10-15T10:32:59.604Z,38.15
2022-10-15T10:35:36.173Z,29.45
2022-10-15T10:38:04.703Z,36.88
2022-10-15T10:40:36.740Z,35.30
2022-10-15T10:43:17.336Z,36.92
2022-10-15T10:45:55.088Z,36.28
2022-10-15T10:48:28.361Z,35.10
2022-10-15T10:51:19.541Z,35.28
2022-10-15T10:53:52.671Z,38.10
2022-10-15T10:56:40.728Z,31.45
2022-10-15T10:59:34.913Z,32.25
2022-10-15T11:02:04.724Z,36.35
2022-10-15T11:04:37.050Z,30.40
2022-10-15T11:07:23.621Z,34.28
2022-10-15T11:10:14.160Z,30.35
2022-10-15T11:13:00.463Z,32.05
2022-10-15T11:16:03.498Z,33.13
2022-10-15T11:18:43.585Z,25.67
2022-10-15T11:21:26.494Z,33.33
2022-10-15T11:24:17.537Z,27.65
2022-10-15T11:27:11.749Z,26.45
2022-10-15T11:29:45.619Z,26.73
2022-10-15T11:33:05.703Z,26.73
2022-10-15T11:35:59.283Z,26.45
2022-10-15T11:38:44.977Z,24.98
2022-10-15T11:41:38.045Z,28.75
2022-10-15T11:44:18.089Z,25.95
2022-10-15T11:47:09.332Z,32.75
2022-10-15T11:50:15.416Z,29.48
2022-10-15T11:52:53.222Z,26.30
2022-10-15T11:55:35.654Z,28.15
2022-10-15T11:58:27.581Z,26.90
2022-10-15T12:01:00.121Z,28.90
2022-10-15T12:03:30.764Z,29.48
2022-10-15T12:06:08.950Z,28.77
2022-10-15T12:08:40.320Z,27.98
2022-10-15T12:11:28.505Z,27.85
2022-10-15T12:14:04.609Z,34.08
2022-10-15T12:16:48.192Z,29.35
2022-10-15T12:19:36.839Z,29.63
2022-10-15T12:22:11.364Z,30.55
2022-10-15T12:24:47.435Z,25.73
2022-10-15T12:27:17.222Z,22.60
2022-10-15T12:30:00.702Z,36.13
2022-10-15T12:32:42.716Z,28.75
2022-10-15T12:35:16.838Z,28.10
2022-10-15T12:37:48.138Z,26.13
2022-10-15T12:40:22.238Z,23.98
2022-10-15T12:42:56.056Z,25.77
2022-10-15T12:45:39.120Z,35.80
2022-10-15T12:48:14.722Z,29.58
2022-10-15T12:50:43.432Z,32.92
2022-10-15T12:53:32.588Z,26.88
2022-10-15T12:56:26.200Z,24.38
2022-10-15T12:58:56.204Z,31.83
2022-10-15T13:01:24.280Z,28.33
2022-10-15T13:03:52.877Z,28.88
2022-10-15T13:06:21.587Z,25.27
2022-10-15T13:09:11.044Z,25.60
2022-10-15T13:11:47.975Z,26.38
2022-10-15T13:14:29.600Z,23.15
2022-10-15T13:17:01.506Z,27.45
2022-10-15T13:19:35.514Z,29.15
2022-10-15T13:22:06.163Z,33.58
2022-10-15T13:24:43.758Z,29.17
2022-10-15T13:30:05.551Z,29.52
2022-10-15T13:32:49.341Z,30.13
2022-10-15T13:35:23.685Z,33.25
2022-10-15T13:37:52.098Z,30.85
2022-10-15T13:40:28.566Z,32.83
2022-10-15T13:43:03.694Z,37.03
2022-10-15T13:45:32.882Z,32.08
2022-10-15T13:48:01.279Z,28.38
2022-10-15T13:50:38.619Z,27.92
2022-10-15T13:53:24.420Z,30.35
2022-10-15T13:55:57.550Z,32.67
2022-10-15T13:58:30.655Z,33.95
2022-10-15T14:01:01.349Z,28.45
2022-10-15T14:03:31.894Z,26.38
2022-10-15T14:06:10.611Z,27.00
2022-10-15T14:08:38.950Z,25.23
2022-10-15T14:11:07.104Z,33.17
2022-10-15T14:13:35.558Z,32.58
2022-10-15T14:16:17.110Z,29.02
2022-10-15T14:18:51.828Z,28.55
2022-10-15T14:21:22.462Z,28.35
2022-10-15T14:23:50.992Z,28.23
2022-10-15T14:26:24.417Z,32.10
2022-10-15T14:28:55.932Z,39.72
2022-10-15T14:31:33.461Z,27.90
2022-10-15T14:34:01.850Z,31.30
2022-10-15T14:36:31.929Z,38.85
2022-10-15T14:39:35.154Z,28.13
2022-10-15T14:42:04.604Z,28.15
2022-10-15T14:44:47.809Z,28.33
2022-10-15T14:47:26.643Z,27.90
2022-10-15T14:50:00.185Z,33.78
2022-10-15T14:52:30.594Z,30.35
2022-10-15T14:55:13.799Z,29.00
2022-10-15T14:57:44.122Z,25.60
2022-10-15T15:00:36.294Z,30.50
2022-10-15T15:03:06.531Z,29.38
2022-10-15T15:05:55.046Z,35.25
2022-10-15T15:08:24.044Z,32.45
2022-10-15T15:10:54.807Z,31.67
2022-10-15T15:13:25.629Z,31.38
2022-10-15T15:15:54.380Z,35.38
2022-10-15T15:18:22.791Z,28.55
2022-10-15T15:20:51.853Z,31.70
2022-10-15T15:23:25.681Z,26.50
2022-10-15T15:25:55.254Z,29.27
2022-10-15T15:28:25.666Z,35.20
2022-10-15T15:31:06.397Z,40.88
2022-10-15T15:33:34.938Z,41.45
2022-10-15T15:36:05.306Z,37.15
2022-10-15T15:38:33.449Z,34.60
2022-10-15T15:41:11.478Z,37.83
2022-10-15T15:43:39.947Z,29.85
2022-10-15T15:46:08.879Z,36.65
2022-10-15T15:48:37.660Z,30.27
2022-10-15T15:51:28.676Z,32.05
2022-10-15T15:53:57.731Z,39.13
2022-10-15T15:56:26.299Z,28.15
2022-10-15T15:58:54.461Z,34.55
2022-10-15T16:01:22.953Z,37.25
2022-10-15T16:03:51.040Z,35.63
2022-10-15T16:06:19.382Z,32.60
2022-10-15T16:08:47.497Z,30.55
2022-10-15T16:11:15.879Z,34.00
2022-10-15T16:13:44.037Z,40.83
2022-10-15T16:16:14.022Z,37.35
2022-10-15T16:18:42.279Z,38.63
2022-10-15T16:21:10.589Z,32.30
2022-10-15T16:23:38.695Z,30.13
2022-10-15T16:26:07.124Z,41.63
2022-10-15T16:28:35.257Z,35.45
2022-10-15T16:31:27.879Z,34.22
2022-10-15T16:33:58.675Z,37.92
2022-10-15T16:36:27.143Z,40.75
2022-10-15T16:38:55.186Z,36.72
2022-10-15T16:41:23.724Z,37.83
2022-10-15T16:43:51.898Z,39.35
2022-10-15T16:46:20.726Z,36.92
2022-10-15T16:48:59.086Z,41.33
2022-10-15T16:51:28.131Z,36.70
2022-10-15T16:53:58.153Z,35.20
2022-10-15T16:56:28.712Z,49.08
2022-10-15T16:58:57.015Z,48.35
2022-10-15T17:01:27.985Z,47.83
2022-10-15T17:03:57.629Z,40.53
2022-10-15T17:06:28.284Z,47.13
2022-10-15T17:08:59.545Z,45.00
2022-10-15T17:11:39.228Z,49.65
2022-10-15T17:14:09.664Z,44.08
2022-10-15T17:16:41.118Z,43.08
2022-10-15T17:19:10.467Z,45.28
2022-10-15T17:21:42.348Z,45.63
2022-10-15T17:24:13.193Z,46.67
2022-10-15T17:26:43.259Z,54.60
2022-10-15T17:29:20.179Z,49.10
2022-10-15T17:31:50.085Z,46.05
2022-10-15T17:34:18.699Z,52.05
2022-10-15T17:36:48.745Z,51.35
2022-10-15T17:39:19.151Z,51.15
2022-10-15T17:41:47.921Z,54.17
2022-10-15T17:44:16.331Z,54.13
2022-10-15T17:46:44.699Z,54.90
2022-10-15T17:49:18.258Z,50.05
2022-10-15T17:51:47.355Z,52.92
2022-10-15T17:54:15.804Z,47.72
2022-10-15T17:56:44.361Z,53.45
2022-10-15T17:59:13.067Z,50.47
2022-10-15T18:01:58.293Z,44.63
2022-10-15T18:04:30.864Z,52.17
2022-10-15T18:06:59.236Z,52.90
2022-10-15T18:09:28.424Z,50.70
2022-10-15T18:12:00.694Z,53.47
2022-10-15T18:14:30.226Z,52.40
2022-10-15T18:16:58.823Z,49.55
2022-10-15T18:19:27.399Z,54.80
2022-10-15T18:21:55.891Z,51.92
2022-10-15T18:24:24.338Z,50.13
2022-10-15T18:26:53.169Z,47.35
2022-10-15T18:29:22.592Z,53.28
2022-10-15T18:31:56.217Z,63.05
2022-10-15T18:34:25.665Z,55.28
2022-10-15T18:36:54.183Z,57.15
2022-10-15T18:39:25.165Z,39.73
2022-10-15T18:41:53.648Z,54.45
2022-10-15T18:44:23.386Z,51.58
2022-10-15T18:46:52.415Z,41.72
2022-10-15T18:49:21.422Z,53.67
2022-10-15T18:51:52.034Z,50.17
2022-10-15T18:54:21.579Z,46.60
2022-10-15T18:56:50.160Z,53.38
2022-10-15T18:59:20.871Z,53.80
2022-10-15T19:01:50.960Z,53.38
2022-10-15T19:04:20.515Z,53.08
2022-10-15T19:06:51.340Z,44.08
2022-10-15T19:09:21.897Z,48.00
2022-10-15T19:11:52.094Z,49.15
2022-10-15T19:14:21.344Z,48.03
2022-10-15T19:16:50.443Z,47.67
2022-10-15T19:19:21.051Z,49.75
2022-10-15T19:21:50.843Z,56.90
2022-10-15T19:24:20.778Z,48.05
2022-10-15T19:26:50.508Z,48.58
2022-10-15T19:29:18.985Z,49.35
2022-10-15T19:31:49.717Z,46.13
2022-10-15T19:34:18.157Z,50.33
2022-10-15T19:36:48.313Z,49.45
2022-10-15T19:39:18.803Z,50.78
2022-10-15T19:41:47.526Z,51.50
2022-10-15T19:44:17.252Z,52.08
2022-10-15T19:46:46.887Z,51.15
2022-10-15T19:49:15.081Z,54.40
2022-10-15T19:51:43.728Z,49.47
2022-10-15T19:54:11.896Z,43.67
2022-10-15T19:56:40.450Z,49.10
2022-10-15T19:59:09.974Z,47.45
2022-10-15T20:01:38.394Z,45.83
2022-10-15T20:04:07.186Z,45.83
2022-10-15T20:06:38.470Z,49.65
2022-10-15T20:09:07.821Z,53.25
2022-10-15T20:11:37.353Z,48.60
2022-10-15T20:14:05.810Z,59.47
2022-10-15T20:16:34.180Z,51.10
2022-10-15T20:19:04.268Z,48.67
2022-10-15T20:21:32.869Z,43.70
2022-10-15T20:24:04.634Z,52.05
2022-10-15T20:26:33.729Z,47.55
2022-10-15T20:29:01.954Z,50.63
2022-10-15T20:31:33.226Z,51.58
2022-10-15T20:36:30.839Z,52.08
2022-10-15T20:39:00.843Z,52.03
2022-10-15T20:41:29.669Z,53.88
2022-10-15T20:43:58.038Z,50.63
2022-10-15T20:46:30.486Z,44.20
2022-10-15T20:49:03.313Z,48.72
2022-10-15T20:51:34.944Z,50.17
2022-10-15T20:54:03.326Z,49.08
2022-10-15T20:56:31.768Z,43.45
2022-10-15T20:58:59.845Z,43.15
2022-10-15T21:01:28.299Z,41.28
2022-10-15T21:03:56.482Z,43.90
2022-10-15T21:06:24.901Z,40.53
2022-10-15T21:08:52.993Z,41.20
2022-10-15T21:11:21.345Z,46.28
2022-10-15T21:13:49.626Z,40.90
2022-10-15T21:16:18.022Z,40.17
2022-10-15T21:18:46.281Z,39.78
2022-10-15T21:21:15.679Z,41.17
2022-10-15T21:23:43.986Z,37.97
